createdAt,value
2019-05-20T00:00:02.804Z,7.21
2019-05-20T00:01:03.173Z,8.22
2019-05-20T00:02:02.756Z,13.58
2019-05-20T00:03:02.738Z,8.95
2019-05-20T00:04:02.591Z,7.2
2019-05-20T00:05:02.883Z,7.44
2019-05-20T00:06:02.701Z,10.38
2019-05-20T00:07:03.159Z,11.48
2019-05-20T00:08:02.759Z,7.7
2019-05-20T00:09:02.855Z,9.19
2019-05-20T00:10:03.329Z,7.71
2019-05-20T00:11:02.652Z,7.93
2019-05-20T00:12:02.695Z,9.14
2019-05-20T00:13:03.017Z,7.64
2019-05-20T00:14:02.361Z,7.53
2019-05-20T00:15:02.937Z,10.85
2019-05-20T00:16:02.672Z,8.62
2019-05-20T00:17:02.643Z,8.94
2019-05-20T00:18:03.191Z,9.79
2019-05-20T00:19:02.893Z,8.26
2019-05-20T00:20:03.350Z,10.3
2019-05-20T00:21:02.773Z,8.51
2019-05-20T00:22:03.120Z,8.42
2019-05-20T00:23:02.669Z,8.81
2019-05-20T00:24:02.978Z,8.85
2019-05-20T00:25:03.164Z,8.74
2019-05-20T00:26:03.379Z,9.08
2019-05-20T00:27:02.671Z,8.69
2019-05-20T00:28:03.156Z,9.76
2019-05-20T00:29:02.676Z,10.49
2019-05-20T00:30:03.140Z,8.33
2019-05-20T00:31:02.574Z,9.66
2019-05-20T00:32:02.876Z,8.48
2019-05-20T00:33:02.737Z,9.45
2019-05-20T00:34:02.548Z,8.98
2019-05-20T00:35:02.748Z,9
2019-05-20T00:36:03.033Z,10.18
2019-05-20T00:37:02.652Z,9.86
2019-05-20T00:38:02.275Z,9.42
2019-05-20T00:39:02.902Z,8.36
2019-05-20T00:40:02.464Z,8.36
2019-05-20T00:41:02.716Z,9.84
2019-05-20T00:42:02.542Z,9.27
2019-05-20T00:43:02.870Z,9.27
2019-05-20T00:44:03.108Z,8.66
2019-05-20T00:45:01.834Z,11.89
2019-05-20T00:46:02.637Z,11.89
2019-05-20T00:47:03.056Z,8.81
2019-05-20T00:48:02.422Z,9.56
2019-05-20T00:49:02.874Z,10.14
2019-05-20T00:50:02.916Z,9.98
2019-05-20T00:51:02.868Z,10.04
2019-05-20T00:52:02.506Z,8.54
2019-05-20T00:53:02.468Z,8.99
2019-05-20T00:54:03.365Z,9.36
2019-05-20T00:55:02.738Z,10.24
2019-05-20T00:56:03.206Z,11.42
2019-05-20T00:57:02.878Z,10.7
2019-05-20T00:58:02.677Z,9.95
2019-05-20T00:59:02.550Z,10.91
2019-05-20T01:00:02.857Z,9.93
2019-05-20T01:01:02.410Z,12.71
2019-05-20T01:02:03.128Z,12.29
2019-05-20T01:03:02.291Z,11.42
2019-05-20T01:04:02.795Z,16.92
2019-05-20T01:05:02.361Z,10.94
2019-05-20T01:06:02.559Z,11.79
2019-05-20T01:07:03.533Z,11.38
2019-05-20T01:08:03.032Z,11.83
2019-05-20T01:09:02.565Z,12.02
2019-05-20T01:10:02.728Z,11.54
2019-05-20T01:11:02.990Z,10.35
2019-05-20T01:12:02.525Z,11.88
2019-05-20T01:13:03.095Z,14.42
2019-05-20T01:14:02.598Z,11.38
2019-05-20T01:15:02.430Z,15.04
2019-05-20T01:16:02.594Z,13.66
2019-05-20T01:17:03.174Z,12.76
2019-05-20T01:18:03.465Z,11.03
2019-05-20T01:19:03.206Z,12.37
2019-05-20T01:20:02.571Z,13.63
2019-05-20T01:21:02.394Z,13.52
2019-05-20T01:22:02.729Z,12.62
2019-05-20T01:23:02.996Z,13.44
2019-05-20T01:24:02.451Z,11.43
2019-05-20T01:25:02.771Z,12.25
2019-05-20T01:26:02.953Z,11.34
2019-05-20T01:27:02.562Z,10.09
2019-05-20T01:28:02.890Z,10.09
2019-05-20T01:29:02.868Z,12.42
2019-05-20T01:30:02.676Z,12.44
2019-05-20T01:31:02.753Z,12.44
2019-05-20T01:32:02.565Z,12.38
2019-05-20T01:33:13.104Z,11.02
2019-05-20T01:34:02.705Z,9.96
2019-05-20T01:35:02.951Z,12.77
2019-05-20T01:36:02.488Z,11.74
2019-05-20T01:37:02.774Z,11.29
2019-05-20T01:38:02.419Z,11.55
2019-05-20T01:39:02.874Z,11.48
2019-05-20T01:40:02.551Z,14.45
2019-05-20T01:41:02.796Z,13.14
2019-05-20T01:42:02.514Z,10.1
2019-05-20T01:43:02.770Z,14.18
2019-05-20T01:44:02.411Z,12.64
2019-05-20T01:45:02.642Z,12.4
2019-05-20T01:46:02.243Z,11.18
2019-05-20T01:47:02.617Z,11.14
2019-05-20T01:48:03.040Z,12.18
2019-05-20T01:49:02.463Z,10.13
2019-05-20T01:50:02.855Z,14.22
2019-05-20T01:51:02.478Z,11.99
2019-05-20T01:52:02.718Z,10.48
2019-05-20T01:53:03.130Z,11.99
2019-05-20T01:54:02.811Z,11.58
2019-05-20T01:55:02.543Z,10.98
2019-05-20T01:56:02.584Z,10.43
2019-05-20T01:57:02.773Z,11.08
2019-05-20T01:58:03.054Z,10.96
2019-05-20T01:59:03.128Z,13.41
2019-05-20T02:00:03.252Z,11.05
2019-05-20T02:01:02.579Z,11.22
2019-05-20T02:02:02.754Z,11.28
2019-05-20T02:03:02.407Z,14.16
2019-05-20T02:04:03.327Z,10.02
2019-05-20T02:05:03.192Z,11.89
2019-05-20T02:06:02.458Z,12.32
2019-05-20T02:07:02.750Z,9.99
2019-05-20T02:08:03.208Z,14.56
2019-05-20T02:09:02.846Z,11.41
2019-05-20T02:10:02.819Z,12.22
2019-05-20T02:11:03.083Z,10.87
2019-05-20T02:12:02.874Z,12.88
2019-05-20T02:13:02.555Z,17.65
2019-05-20T02:14:03.227Z,10.84
2019-05-20T02:15:02.615Z,12.64
2019-05-20T02:16:02.905Z,13.26
2019-05-20T02:17:02.905Z,15.26
2019-05-20T02:18:03.290Z,12.29
2019-05-20T02:19:02.925Z,11.36
2019-05-20T02:20:02.806Z,11.36
2019-05-20T02:21:03.193Z,11.64
2019-05-20T02:22:02.445Z,12.82
2019-05-20T02:23:02.885Z,12.82
2019-05-20T02:24:02.510Z,12.09
2019-05-20T02:25:03.136Z,13.72
2019-05-20T02:26:02.679Z,12.64
2019-05-20T02:27:03.157Z,11.36
2019-05-20T02:28:02.651Z,10.74
2019-05-20T02:29:02.877Z,12.38
2019-05-20T02:30:02.911Z,11.85
2019-05-20T02:31:03.245Z,14.4
2019-05-20T02:32:02.734Z,12.61
2019-05-20T02:33:03.333Z,18.26
2019-05-20T02:34:02.695Z,11.34
2019-05-20T02:35:03.213Z,11.31
2019-05-20T02:36:02.496Z,13.35
2019-05-20T02:37:02.895Z,11.02
2019-05-20T02:38:02.707Z,11.04
2019-05-20T02:39:03.044Z,10.92
2019-05-20T02:40:03.191Z,11.86
2019-05-20T02:41:03.118Z,14.74
2019-05-20T02:42:03.234Z,9.82
2019-05-20T02:43:02.826Z,11.94
2019-05-20T02:44:03.081Z,11.89
2019-05-20T02:45:02.706Z,9.24
2019-05-20T02:46:02.296Z,11.89
2019-05-20T02:47:02.949Z,12.44
2019-05-20T02:48:03.200Z,9.38
2019-05-20T02:49:02.947Z,10.16
2019-05-20T02:50:02.418Z,9.11
2019-05-20T02:51:02.689Z,9.36
2019-05-20T02:52:03.096Z,9.77
2019-05-20T02:53:02.846Z,9.48
2019-05-20T02:54:02.956Z,10.78
2019-05-20T02:55:02.998Z,11.99
2019-05-20T02:56:03.106Z,12.48
2019-05-20T02:57:02.498Z,9.44
2019-05-20T02:58:02.774Z,11.97
2019-05-20T02:59:02.598Z,9.57
2019-05-20T03:00:02.949Z,9.96
2019-05-20T03:01:02.788Z,9.64
2019-05-20T03:02:02.424Z,11.64
2019-05-20T03:03:02.755Z,11.35
2019-05-20T03:04:11.306Z,10.06
2019-05-20T03:05:02.873Z,13.71
2019-05-20T03:06:03.016Z,8.79
2019-05-20T03:07:02.871Z,8.79
2019-05-20T03:08:02.306Z,10.31
2019-05-20T03:09:02.952Z,10.31
2019-05-20T03:10:02.557Z,9.29
2019-05-20T03:11:02.599Z,11.08
2019-05-20T03:12:03.243Z,11.08
2019-05-20T03:13:02.812Z,8.76
2019-05-20T03:14:02.731Z,9.06
2019-05-20T03:15:02.911Z,9.56
2019-05-20T03:16:03.334Z,8.93
2019-05-20T03:17:02.671Z,12.27
2019-05-20T03:18:02.327Z,9.29
2019-05-20T03:19:02.254Z,9.54
2019-05-20T03:20:02.963Z,9.91
2019-05-20T03:21:03.072Z,10.65
2019-05-20T03:22:03.401Z,10.23
2019-05-20T03:23:03.182Z,10.48
2019-05-20T03:24:03.196Z,8.73
2019-05-20T03:25:03.053Z,8.84
2019-05-20T03:26:02.755Z,9.91
2019-05-20T03:27:03.186Z,9.4
2019-05-20T03:28:02.624Z,9.66
2019-05-20T03:29:02.406Z,10.76
2019-05-20T03:30:02.888Z,12.9
2019-05-20T03:31:03.301Z,9.3
2019-05-20T03:32:02.554Z,9.73
2019-05-20T03:33:03.245Z,10.21
2019-05-20T03:34:02.335Z,8.96
2019-05-20T03:35:03.274Z,9.38
2019-05-20T03:36:02.804Z,10.07
2019-05-20T03:37:03.036Z,10.35
2019-05-20T03:38:02.407Z,11.26
2019-05-20T03:39:02.648Z,9.44
2019-05-20T03:40:03.089Z,8.4
2019-05-20T03:41:02.499Z,11.05
2019-05-20T03:42:03.064Z,13.4
2019-05-20T03:43:03.000Z,9.29
2019-05-20T03:44:03.096Z,9.01
2019-05-20T03:45:03.346Z,9.38
2019-05-20T03:46:02.564Z,10.33
2019-05-20T03:47:02.917Z,9.96
2019-05-20T03:48:03.252Z,12.31
2019-05-20T03:49:02.601Z,9.95
2019-05-20T03:50:03.274Z,10.85
2019-05-20T03:51:02.800Z,13.31
2019-05-20T03:52:03.295Z,11.33
2019-05-20T03:53:02.931Z,17.48
2019-05-20T03:54:02.296Z,11.18
2019-05-20T03:55:02.856Z,12.32
2019-05-20T03:56:03.149Z,9.02
2019-05-20T03:57:02.525Z,10.64
2019-05-20T03:58:03.270Z,13.78
2019-05-20T03:59:02.502Z,13.78
2019-05-20T04:00:03.021Z,16.63
2019-05-20T04:01:03.216Z,11.46
2019-05-20T04:02:03.176Z,11.46
2019-05-20T04:03:02.638Z,12.36
2019-05-20T04:04:02.900Z,9.32
2019-05-20T04:05:03.390Z,11.34
2019-05-20T04:06:03.295Z,11.59
2019-05-20T04:07:02.691Z,8.58
2019-05-20T04:08:02.632Z,8.66
2019-05-20T04:09:03.318Z,12.37
2019-05-20T04:10:02.901Z,9.78
2019-05-20T04:11:02.770Z,10.51
2019-05-20T04:12:02.710Z,11.07
2019-05-20T04:13:03.074Z,11.88
2019-05-20T04:14:02.537Z,13.89
2019-05-20T04:15:02.974Z,11.52
2019-05-20T04:16:02.189Z,9.99
2019-05-20T04:17:02.689Z,14.45
2019-05-20T04:18:03.016Z,10.66
2019-05-20T04:19:02.546Z,11.58
2019-05-20T04:20:03.167Z,10.89
2019-05-20T04:21:02.973Z,10.7
2019-05-20T04:22:02.747Z,10.62
2019-05-20T04:23:03.289Z,11.02
2019-05-20T04:24:02.669Z,11.27
2019-05-20T04:25:03.225Z,11.48
2019-05-20T04:26:02.640Z,12.71
2019-05-20T04:27:03.080Z,12.06
2019-05-20T04:28:03.180Z,11.79
2019-05-20T04:29:02.718Z,11.73
2019-05-20T04:30:02.353Z,10.86
2019-05-20T04:31:02.921Z,9.31
2019-05-20T04:32:01.855Z,13.42
2019-05-20T04:33:02.581Z,11.26
2019-05-20T04:34:03.054Z,10.88
2019-05-20T04:35:20.364Z,10.4
2019-05-20T04:36:02.757Z,11.69
2019-05-20T04:37:03.163Z,10.49
2019-05-20T04:38:02.734Z,11.35
2019-05-20T04:39:03.136Z,9.93
2019-05-20T04:40:02.390Z,12.68
2019-05-20T04:41:03.280Z,10.55
2019-05-20T04:42:06.409Z,12.75
2019-05-20T04:43:02.390Z,11.04
2019-05-20T04:44:02.942Z,11.21
2019-05-20T04:45:03.212Z,13.99
2019-05-20T04:46:02.685Z,13.48
2019-05-20T04:47:03.297Z,11.28
2019-05-20T04:48:02.747Z,11.65
2019-05-20T04:49:03.034Z,11.35
2019-05-20T04:50:02.467Z,11.98
2019-05-20T04:51:02.863Z,11.98
2019-05-20T04:52:02.388Z,11.02
2019-05-20T04:53:02.880Z,12.96
2019-05-20T04:54:03.011Z,12.96
2019-05-20T04:55:02.728Z,10.23
2019-05-20T04:56:02.926Z,11.11
2019-05-20T04:57:02.600Z,11.11
2019-05-20T04:58:03.121Z,9.69
2019-05-20T04:59:02.518Z,12.08
2019-05-20T05:00:03.031Z,10.98
2019-05-20T05:01:02.466Z,12.13
2019-05-20T05:02:02.859Z,10.99
2019-05-20T05:03:02.511Z,11.44
2019-05-20T05:04:02.772Z,13.28
2019-05-20T05:05:03.259Z,11.78
2019-05-20T05:06:02.591Z,10.6
2019-05-20T05:07:03.399Z,10.75
2019-05-20T05:08:02.601Z,12.62
2019-05-20T05:09:03.176Z,10.22
2019-05-20T05:10:02.196Z,13.52
2019-05-20T05:11:02.744Z,10.43
2019-05-20T05:12:02.338Z,11.76
2019-05-20T05:13:02.317Z,12.25
2019-05-20T05:14:02.230Z,10.69
2019-05-20T05:15:05.738Z,11.63
2019-05-20T05:16:03.215Z,11.45
2019-05-20T05:17:03.004Z,11.87
2019-05-20T05:18:03.245Z,11.4
2019-05-20T05:19:02.808Z,11.99
2019-05-20T05:20:02.574Z,11.85
2019-05-20T05:21:02.492Z,11.1
2019-05-20T05:22:02.594Z,13.35
2019-05-20T05:23:03.254Z,14.62
2019-05-20T05:24:02.662Z,11.55
2019-05-20T05:25:02.740Z,12.92
2019-05-20T05:26:03.286Z,12
2019-05-20T05:27:02.673Z,17.72
2019-05-20T05:28:02.268Z,12.25
2019-05-20T05:29:02.954Z,12.65
2019-05-20T05:30:03.045Z,11.32
2019-05-20T05:31:02.528Z,11.17
2019-05-20T05:32:03.183Z,12.45
2019-05-20T05:33:02.530Z,12.63
2019-05-20T05:34:03.097Z,11.69
2019-05-20T05:35:02.575Z,13.31
2019-05-20T05:36:02.665Z,13.31
2019-05-20T05:37:02.723Z,12.42
2019-05-20T05:38:03.181Z,14.49
2019-05-20T05:39:03.277Z,13.67
2019-05-20T05:40:02.718Z,11.86
2019-05-20T05:41:03.162Z,11.01
2019-05-20T05:42:02.382Z,16.89
2019-05-20T05:43:02.555Z,16.89
2019-05-20T05:44:02.764Z,12.79
2019-05-20T05:45:03.299Z,17.1
2019-05-20T05:46:02.732Z,14.93
2019-05-20T05:47:03.081Z,14.95
2019-05-20T05:48:02.709Z,13.01
2019-05-20T05:49:02.985Z,13.98
2019-05-20T05:50:02.539Z,12.31
2019-05-20T05:51:02.804Z,12.35
2019-05-20T05:52:03.121Z,17.09
2019-05-20T05:53:02.646Z,13.11
2019-05-20T05:54:02.891Z,12.58
2019-05-20T05:55:02.509Z,14.99
2019-05-20T05:56:03.359Z,11.56
2019-05-20T05:57:02.533Z,14.2
2019-05-20T05:58:03.077Z,12.44
2019-05-20T05:59:02.505Z,11.6
2019-05-20T06:00:03.237Z,12.47
2019-05-20T06:01:02.734Z,15.49
2019-05-20T06:02:02.982Z,15.04
2019-05-20T06:03:02.716Z,14.43
2019-05-20T06:04:03.238Z,12.37
2019-05-20T06:05:01.640Z,14.77
2019-05-20T06:06:11.897Z,12.91
2019-05-20T06:07:02.310Z,12.42
2019-05-20T06:08:03.035Z,14.47
2019-05-20T06:09:02.754Z,11.34
2019-05-20T06:10:02.404Z,13.16
2019-05-20T06:11:02.522Z,12.15
2019-05-20T06:12:03.227Z,12.14
2019-05-20T06:13:02.840Z,13.55
2019-05-20T06:14:02.519Z,91.98
2019-05-20T06:15:02.772Z,12.56
2019-05-20T06:16:02.375Z,13.08
2019-05-20T06:17:02.933Z,12.64
2019-05-20T06:18:02.522Z,13.01
2019-05-20T06:19:03.052Z,16.89
2019-05-20T06:20:02.670Z,15.81
2019-05-20T06:21:02.853Z,12.35
2019-05-20T06:22:02.709Z,12.56
2019-05-20T06:23:02.371Z,13.33
2019-05-20T06:24:02.927Z,16.05
2019-05-20T06:25:02.953Z,13.38
2019-05-20T06:26:03.064Z,12.1
2019-05-20T06:27:02.866Z,12.94
2019-05-20T06:28:03.280Z,12.94
2019-05-20T06:29:03.145Z,17.4
2019-05-20T06:30:02.573Z,16.16
2019-05-20T06:31:03.326Z,16.16
2019-05-20T06:32:02.426Z,13
2019-05-20T06:33:03.112Z,13
2019-05-20T06:34:02.469Z,13.39
2019-05-20T06:35:03.297Z,14.41
2019-05-20T06:36:02.723Z,14.43
2019-05-20T06:37:02.998Z,19.6
2019-05-20T06:38:02.617Z,14.03
2019-05-20T06:39:03.056Z,12.67
2019-05-20T06:40:03.062Z,12.49
2019-05-20T06:41:02.463Z,13.06
2019-05-20T06:42:03.043Z,12.05
2019-05-20T06:43:02.389Z,11.49
2019-05-20T06:44:02.903Z,11.48
2019-05-20T06:45:02.839Z,13.99
2019-05-20T06:46:02.876Z,15.2
2019-05-20T06:47:03.147Z,15.45
2019-05-20T06:48:02.795Z,14.39
2019-05-20T06:49:03.195Z,16.51
2019-05-20T06:50:02.979Z,13.45
2019-05-20T06:51:02.497Z,16.72
2019-05-20T06:52:02.784Z,14.31
2019-05-20T06:53:03.330Z,14.84
2019-05-20T06:54:02.683Z,19.11
2019-05-20T06:55:03.319Z,16.72
2019-05-20T06:56:02.437Z,13.76
2019-05-20T06:57:02.950Z,12.86
2019-05-20T06:58:02.705Z,15.36
2019-05-20T06:59:02.958Z,13.2
2019-05-20T07:00:02.927Z,16.12
2019-05-20T07:01:03.111Z,15.09
2019-05-20T07:02:02.874Z,14.18
2019-05-20T07:03:03.231Z,16.01
2019-05-20T07:04:02.991Z,15.66
2019-05-20T07:05:02.417Z,11.89
2019-05-20T07:06:02.714Z,14.69
2019-05-20T07:07:12.399Z,17.91
2019-05-20T07:08:02.600Z,14.48
2019-05-20T07:09:02.965Z,23.38
2019-05-20T07:10:02.877Z,18.91
2019-05-20T07:11:02.738Z,15.65
2019-05-20T07:12:02.354Z,14.95
2019-05-20T07:13:02.800Z,14.68
2019-05-20T07:14:03.295Z,12.38
2019-05-20T07:15:03.015Z,15.58
2019-05-20T07:16:03.070Z,11.32
2019-05-20T07:17:02.618Z,15.59
2019-05-20T07:18:03.097Z,14.77
2019-05-20T07:19:02.769Z,18.38
2019-05-20T07:20:02.913Z,13.25
2019-05-20T07:21:02.577Z,13.25
2019-05-20T07:22:02.857Z,14.78
2019-05-20T07:23:02.368Z,14.78
2019-05-20T07:24:02.588Z,14.83
2019-05-20T07:25:03.607Z,18.17
2019-05-20T07:26:02.424Z,14.34
2019-05-20T07:27:03.293Z,15
2019-05-20T07:28:02.814Z,14.61
2019-05-20T07:29:03.422Z,13.71
2019-05-20T07:30:03.106Z,14.62
2019-05-20T07:31:02.882Z,13.25
2019-05-20T07:32:02.591Z,17.19
2019-05-20T07:33:03.192Z,17.08
2019-05-20T07:34:02.786Z,13.83
2019-05-20T07:35:03.286Z,14.25
2019-05-20T07:36:02.596Z,14.19
2019-05-20T07:37:04.047Z,13.72
2019-05-20T07:38:03.207Z,15.55
2019-05-20T07:39:02.741Z,13.34
2019-05-20T07:40:03.180Z,16.85
2019-05-20T07:41:01.433Z,14.88
2019-05-20T07:42:03.254Z,14.55
2019-05-20T07:43:02.498Z,16.21
2019-05-20T07:44:03.048Z,16.18
2019-05-20T07:45:03.525Z,14.94
2019-05-20T07:46:03.018Z,14.72
2019-05-20T07:47:02.338Z,17.65
2019-05-20T07:48:03.279Z,14.31
2019-05-20T07:49:02.851Z,13.78
2019-05-20T07:50:03.096Z,14.94
2019-05-20T07:51:03.154Z,14.58
2019-05-20T07:52:03.070Z,14.15
2019-05-20T07:53:03.305Z,17.12
2019-05-20T07:54:02.765Z,16.28
2019-05-20T07:55:03.388Z,15.68
2019-05-20T07:56:02.973Z,15.58
2019-05-20T07:57:03.086Z,14.42
2019-05-20T07:58:03.093Z,14.19
2019-05-20T07:59:03.044Z,17.16
2019-05-20T08:00:02.992Z,15.62
2019-05-20T08:01:03.032Z,15.14
2019-05-20T08:02:03.198Z,15.99
2019-05-20T08:03:02.625Z,19.73
2019-05-20T08:04:03.008Z,16.08
2019-05-20T08:05:03.184Z,16.08
2019-05-20T08:06:02.513Z,14.47
2019-05-20T08:07:24.660Z,15.17
2019-05-20T08:08:02.419Z,15.31
2019-05-20T08:09:02.539Z,16.54
2019-05-20T08:10:02.949Z,15.84
2019-05-20T08:11:02.627Z,15.84
2019-05-20T08:12:02.569Z,15.58
2019-05-20T08:13:02.986Z,13.84
2019-05-20T08:14:02.716Z,14.21
2019-05-20T08:15:03.222Z,16.69
2019-05-20T08:16:02.706Z,13.59
2019-05-20T08:17:02.880Z,18.41
2019-05-20T08:18:02.539Z,14.54
2019-05-20T08:19:03.194Z,13.58
2019-05-20T08:20:02.585Z,13.12
2019-05-20T08:21:02.796Z,17.01
2019-05-20T08:22:03.295Z,16.5
2019-05-20T08:23:02.553Z,16.84
2019-05-20T08:24:03.285Z,14.06
2019-05-20T08:25:02.605Z,18.01
2019-05-20T08:26:03.205Z,17.58
2019-05-20T08:27:02.558Z,15.82
2019-05-20T08:28:03.078Z,16.06
2019-05-20T08:29:02.512Z,17.15
2019-05-20T08:30:02.998Z,16.79
2019-05-20T08:31:02.550Z,15.49
2019-05-20T08:32:02.954Z,15.27
2019-05-20T08:33:03.236Z,19.19
2019-05-20T08:34:02.849Z,16.25
2019-05-20T08:35:02.461Z,18.87
2019-05-20T08:36:02.770Z,18.87
2019-05-20T08:37:03.718Z,16.18
2019-05-20T08:38:02.548Z,16.31
2019-05-20T08:39:03.075Z,16.54
2019-05-20T08:40:02.760Z,15.66
2019-05-20T08:41:03.216Z,18.51
2019-05-20T08:42:02.571Z,18.65
2019-05-20T08:43:02.829Z,15.74
2019-05-20T08:44:02.323Z,16.74
2019-05-20T08:45:03.686Z,18.12
2019-05-20T08:46:03.161Z,19.26
2019-05-20T08:47:02.919Z,20.56
2019-05-20T08:48:02.570Z,23.52
2019-05-20T08:49:02.890Z,18.24
2019-05-20T08:50:06.182Z,15.08
2019-05-20T08:51:02.654Z,17.15
2019-05-20T08:52:03.104Z,17.76
2019-05-20T08:53:02.567Z,16.56
2019-05-20T08:54:03.189Z,18.82
2019-05-20T08:55:02.686Z,18.82
2019-05-20T08:56:03.112Z,18.21
2019-05-20T08:57:03.389Z,16.68
2019-05-20T08:58:02.966Z,16.68
2019-05-20T08:59:03.324Z,17.01
2019-05-20T09:00:03.437Z,15.9
2019-05-20T09:01:03.468Z,15.9
2019-05-20T09:02:03.252Z,22.19
2019-05-20T09:03:02.665Z,17.22
2019-05-20T09:04:02.676Z,20.79
2019-05-20T09:05:02.661Z,21.95
2019-05-20T09:06:02.603Z,19.04
2019-05-20T09:07:02.461Z,18.46
2019-05-20T09:08:04.002Z,20.94
2019-05-20T09:09:02.363Z,20.51
2019-05-20T09:10:03.351Z,18.69
2019-05-20T09:11:02.860Z,17.84
2019-05-20T09:12:03.191Z,16.97
2019-05-20T09:13:02.503Z,16.66
2019-05-20T09:14:03.048Z,18.88
2019-05-20T09:15:02.333Z,22.23
2019-05-20T09:16:03.259Z,21.17
2019-05-20T09:17:03.317Z,20.69
2019-05-20T09:18:02.871Z,15.08
2019-05-20T09:19:02.777Z,20.8
2019-05-20T09:20:02.797Z,17.03
2019-05-20T09:21:03.125Z,20.65
2019-05-20T09:22:02.730Z,19.23
2019-05-20T09:23:03.048Z,23.21
2019-05-20T09:24:03.365Z,16.45
2019-05-20T09:25:03.526Z,16.07
2019-05-20T09:26:02.469Z,17.84
2019-05-20T09:27:02.661Z,20.82
2019-05-20T09:28:02.931Z,20.01
2019-05-20T09:29:02.644Z,16.66
2019-05-20T09:30:02.888Z,18.51
2019-05-20T09:31:02.754Z,21.8
2019-05-20T09:32:02.837Z,17.18
2019-05-20T09:33:02.784Z,20.35
2019-05-20T09:34:02.721Z,17.71
2019-05-20T09:35:03.169Z,17.05
2019-05-20T09:36:02.424Z,21.19
2019-05-20T09:37:03.169Z,21.19
2019-05-20T09:38:16.098Z,17.83
2019-05-20T09:39:03.353Z,17.83
2019-05-20T09:40:02.617Z,20.31
2019-05-20T09:41:02.942Z,24.85
2019-05-20T09:42:02.687Z,24.85
2019-05-20T09:43:03.449Z,16.36
2019-05-20T09:44:02.841Z,17.98
2019-05-20T09:45:03.283Z,24.04
2019-05-20T09:46:07.226Z,21.75
2019-05-20T09:47:03.111Z,20.33
2019-05-20T09:48:02.790Z,19.94
2019-05-20T09:49:03.340Z,18.51
2019-05-20T09:50:03.318Z,17.11
2019-05-20T09:51:03.465Z,21.22
2019-05-20T09:52:03.231Z,18.91
2019-05-20T09:53:06.422Z,20.39
2019-05-20T09:54:03.214Z,17.05
2019-05-20T09:55:02.783Z,20.49
2019-05-20T09:56:02.710Z,18.68
2019-05-20T09:57:02.416Z,16.91
2019-05-20T09:58:02.995Z,21.39
2019-05-20T09:59:03.344Z,19.26
2019-05-20T10:00:02.881Z,20.65
2019-05-20T10:01:02.483Z,20.82
2019-05-20T10:02:02.750Z,18.78
2019-05-20T10:03:03.411Z,18.67
2019-05-20T10:04:02.772Z,18.05
2019-05-20T10:05:03.090Z,21.18
2019-05-20T10:06:02.546Z,20.58
2019-05-20T10:07:02.744Z,20.71
2019-05-20T10:08:03.151Z,17.86
2019-05-20T10:09:02.738Z,21.03
2019-05-20T10:10:03.168Z,21.97
2019-05-20T10:11:02.548Z,21.12
2019-05-20T10:12:02.575Z,21.88
2019-05-20T10:13:02.306Z,20.78
2019-05-20T10:14:02.781Z,20.95
2019-05-20T10:15:02.557Z,19.46
2019-05-20T10:16:02.584Z,18.84
2019-05-20T10:17:03.212Z,20.22
2019-05-20T10:18:03.387Z,18.03
2019-05-20T10:19:02.671Z,19.56
2019-05-20T10:20:03.484Z,19.56
2019-05-20T10:21:03.016Z,21.28
2019-05-20T10:22:02.230Z,17.09
2019-05-20T10:23:03.251Z,21.35
2019-05-20T10:24:03.357Z,21.35
2019-05-20T10:25:02.558Z,23.11
2019-05-20T10:26:02.473Z,20.52
2019-05-20T10:27:02.607Z,20.52
2019-05-20T10:28:03.021Z,20.27
2019-05-20T10:29:02.463Z,18.58
2019-05-20T10:30:03.069Z,18.58
2019-05-20T10:31:02.480Z,22.53
2019-05-20T10:32:03.203Z,21.94
2019-05-20T10:33:03.040Z,21.49
2019-05-20T10:34:02.416Z,21.36
2019-05-20T10:35:03.022Z,20.94
2019-05-20T10:36:03.257Z,16.82
2019-05-20T10:37:02.810Z,22.91
2019-05-20T10:38:03.061Z,21.51
2019-05-20T10:39:02.511Z,18.42
2019-05-20T10:40:03.175Z,20.55
2019-05-20T10:41:03.374Z,20.33
2019-05-20T10:42:03.031Z,20.79
2019-05-20T10:43:02.875Z,24.02
2019-05-20T10:44:02.434Z,20.49
2019-05-20T10:45:03.287Z,26.46
2019-05-20T10:46:02.532Z,20.22
2019-05-20T10:47:02.787Z,19.14
2019-05-20T10:48:03.363Z,19.41
2019-05-20T10:49:02.537Z,24.28
2019-05-20T10:50:02.599Z,19.8
2019-05-20T10:51:02.427Z,21.44
2019-05-20T10:52:03.142Z,21.22
2019-05-20T10:53:02.393Z,20.1
2019-05-20T10:54:02.785Z,23.06
2019-05-20T10:55:03.554Z,26.38
2019-05-20T10:56:03.097Z,19.89
2019-05-20T10:57:03.103Z,20.39
2019-05-20T10:58:02.617Z,21.6
2019-05-20T10:59:03.154Z,20.55
2019-05-20T11:00:03.123Z,19.94
2019-05-20T11:01:03.734Z,21.05
2019-05-20T11:02:02.506Z,23.11
2019-05-20T11:03:02.732Z,20.62
2019-05-20T11:04:02.986Z,24.05
2019-05-20T11:05:02.537Z,24.05
2019-05-20T11:06:03.171Z,23.16
2019-05-20T11:07:02.886Z,21.75
2019-05-20T11:08:02.688Z,21.75
2019-05-20T11:09:13.455Z,22.26
2019-05-20T11:10:03.472Z,20.84
2019-05-20T11:11:02.634Z,19.48
2019-05-20T11:12:03.277Z,21.2
2019-05-20T11:13:02.524Z,20.96
2019-05-20T11:14:02.991Z,25.13
2019-05-20T11:15:03.300Z,20.69
2019-05-20T11:16:02.427Z,22.04
2019-05-20T11:17:03.020Z,22.16
2019-05-20T11:18:02.190Z,21.28
2019-05-20T11:19:03.006Z,27.11
2019-05-20T11:20:02.675Z,27.18
2019-05-20T11:21:02.541Z,21.02
2019-05-20T11:22:03.111Z,22.17
2019-05-20T11:23:02.694Z,22.74
2019-05-20T11:24:02.542Z,22.65
2019-05-20T11:25:02.713Z,22.49
2019-05-20T11:26:03.117Z,23.26
2019-05-20T11:27:02.345Z,23.29
2019-05-20T11:28:03.548Z,29.63
2019-05-20T11:29:02.378Z,24.12
2019-05-20T11:30:03.158Z,28.39
2019-05-20T11:31:02.590Z,22.34
2019-05-20T11:32:02.870Z,22.91
2019-05-20T11:33:03.200Z,21.92
2019-05-20T11:34:02.782Z,23.2
2019-05-20T11:35:03.043Z,24.74
2019-05-20T11:36:02.707Z,19.91
2019-05-20T11:37:03.302Z,25.63
2019-05-20T11:38:02.973Z,25.91
2019-05-20T11:39:06.599Z,24.26
2019-05-20T11:40:03.537Z,22.21
2019-05-20T11:41:03.109Z,25.69
2019-05-20T11:42:02.593Z,23.51
2019-05-20T11:43:02.887Z,24.69
2019-05-20T11:44:02.796Z,21.26
2019-05-20T11:45:03.212Z,28.53
2019-05-20T11:46:03.374Z,24.99
2019-05-20T11:47:02.747Z,27.75
2019-05-20T11:48:03.269Z,25.49
2019-05-20T11:49:02.977Z,25.49
2019-05-20T11:50:03.430Z,24.88
2019-05-20T11:51:02.752Z,24.88
2019-05-20T11:52:02.916Z,25.78
2019-05-20T11:53:02.540Z,27.36
2019-05-20T11:54:02.929Z,28.36
2019-05-20T11:55:03.141Z,28.44
2019-05-20T11:56:02.677Z,25.6
2019-05-20T11:57:02.390Z,27.21
2019-05-20T11:58:14.922Z,24.65
2019-05-20T11:59:02.884Z,27.64
2019-05-20T12:00:03.257Z,30.64
2019-05-20T12:01:02.461Z,26.76
2019-05-20T12:02:03.969Z,26.64
2019-05-20T12:03:02.645Z,26.59
2019-05-20T12:04:03.198Z,36.61
2019-05-20T12:05:02.599Z,28.24
2019-05-20T12:06:03.601Z,27.14
2019-05-20T12:07:03.022Z,24.86
2019-05-20T12:08:03.092Z,29.87
2019-05-20T12:09:03.231Z,28.64
2019-05-20T12:10:02.613Z,31.63
2019-05-20T12:11:02.837Z,30.99
2019-05-20T12:12:03.208Z,28.37
2019-05-20T12:13:02.935Z,27.69
2019-05-20T12:14:03.164Z,26.45
2019-05-20T12:15:04.133Z,30.26
2019-05-20T12:16:03.342Z,23.58
2019-05-20T12:17:02.704Z,28.22
2019-05-20T12:18:03.085Z,23.6
2019-05-20T12:19:02.845Z,26.99
2019-05-20T12:20:04.278Z,26.12
2019-05-20T12:21:02.464Z,28.26
2019-05-20T12:22:02.757Z,23.51
2019-05-20T12:23:03.450Z,25.47
2019-05-20T12:24:02.789Z,25.75
2019-05-20T12:25:03.434Z,25.33
2019-05-20T12:26:02.739Z,26.58
2019-05-20T12:27:03.008Z,26.31
2019-05-20T12:28:03.339Z,24.17
2019-05-20T12:29:02.625Z,38.32
2019-05-20T12:30:02.479Z,25.5
2019-05-20T12:31:03.073Z,26.46
2019-05-20T12:32:03.519Z,26.46
2019-05-20T12:33:17.607Z,28.46
2019-05-20T12:34:02.301Z,24.74
2019-05-20T12:35:02.738Z,29.82
2019-05-20T12:36:03.271Z,24.69
2019-05-20T12:37:02.723Z,28.24
2019-05-20T12:38:03.219Z,28.28
2019-05-20T12:39:03.230Z,28.56
2019-05-20T12:40:07.709Z,25.97
2019-05-20T12:41:03.246Z,26.63
2019-05-20T12:42:02.718Z,32.01
2019-05-20T12:43:02.750Z,29.23
2019-05-20T12:44:11.238Z,26.41
2019-05-20T12:45:03.302Z,25.88
2019-05-20T12:46:02.427Z,26.81
2019-05-20T12:47:02.674Z,33.68
2019-05-20T12:48:03.157Z,20.32
2019-05-20T12:49:02.660Z,18.41
2019-05-20T12:50:03.007Z,35.08
2019-05-20T12:51:03.083Z,24.98
2019-05-20T12:52:02.237Z,21.32
2019-05-20T12:53:02.669Z,19.89
2019-05-20T12:54:02.974Z,19
2019-05-20T12:55:08.981Z,21.36
2019-05-20T12:56:03.353Z,20.95
2019-05-20T12:57:02.562Z,16.1